Collin County Regional, TX

12:49 PM CST on December 10, 2016 (GMT -0600)
Collin County Regional | | Change Station

Elev 584 ft 33.18 °N, 96.59 °W | Updated 56 minutes ago

Overcast
Overcast
42 °F
Feels Like 35 °F
N
14
Wind Variable Wind from SSE

Today
High -- | Low -- °F
--% Chance of Precip.
Yesterday
High -- | Low -- °F
Precip. -- in
Pressure 30.45 in
Visibility 10.0 miles
Clouds Overcast 5000 ft
Windchill 35 °F
Dew Point 27 °F
Humidity 55%
Rainfall 0.00 in
Snow Depth Not available.
7:19 AM 5:19 PM
Waxing Gibbous, 85% visible
METAR KTKI 101753Z 16012KT 10SM OVC050 06/M03 A3041 RMK AO2 SLP311 T00561028 10061 20028 58017
Pressure 30.45 in
Visibility 10.0 miles
Clouds Overcast 5000 ft
Windchill 35 °F
Dew Point 27 °F
Humidity 55%
Rainfall 0.00 in
Snow Depth Not available.
7:19 AM 5:19 PM
Waxing Gibbous, 85% visible
METAR KTKI 101753Z 16012KT 10SM OVC050 06/M03 A3041 RMK AO2 SLP311 T00561028 10061 20028 58017

10-Day Weather Forecast

Almanac

Astronomy

Dec. 10, 2016 Rise Set
Actual Time
Civil Twilight
Nautical Twilight
Astronomical Twilight
Moon
Length of Visible Light
Length of Day
Tomorrow will be .
, % of the Moon is Illuminated

Today's Extremes

State Highs State Lows

Community

WunderPhotos

Upload Photos

1,956,620 photos uploaded!

WunderBlog® & News

Nearby

Air Quality

  Air Quality AQ Index Pollutant
Not available.

Snow Depth

Station Depth Elevation

Earthquake Activity

City Distance Mag. Time & Date
Minimum magnitude displayed is 2.5.

Coastal Water Temperatures

Place Temperature

Stations

Nearby Weather Stations

Station Location Temp. Windchill Dew Point Humidity Wind Precip. Elev Updated Type
                   

Watches & Warnings

There are currently no watches in effect.